sensor_id;sensor_type;location;lat;lon;timestamp;P1;durP1;ratioP1;P2;durP2;ratioP2
6163;SDS011;3114;48.362;10.994;2023-05-10T00:01:34;1.58;;;1.20;;
6163;SDS011;3114;48.362;10.994;2023-05-10T00:04:02;1.30;;;1.20;;
6163;SDS011;3114;48.362;10.994;2023-05-10T00:06:29;2.92;;;1.20;;
6163;SDS011;3114;48.362;10.994;2023-05-10T00:08:56;2.78;;;1.10;;
6163;SDS011;3114;48.362;10.994;2023-05-10T00:11:23;2.78;;;1.13;;
6163;SDS011;3114;48.362;10.994;2023-05-10T00:13:50;0.85;;;0.85;;
6163;SDS011;3114;48.362;10.994;2023-05-10T00:16:17;1.00;;;0.90;;
6163;SDS011;3114;48.362;10.994;2023-05-10T00:18:44;0.95;;;0.95;;
6163;SDS011;3114;48.362;10.994;2023-05-10T00:21:12;1.25;;;0.90;;
6163;SDS011;3114;48.362;10.994;2023-05-10T00:23:39;1.90;;;0.90;;
6163;SDS011;3114;48.362;10.994;2023-05-10T00:26:06;0.90;;;0.90;;
6163;SDS011;3114;48.362;10.994;2023-05-10T00:28:33;1.00;;;1.00;;
6163;SDS011;3114;48.362;10.994;2023-05-10T00:31:00;1.10;;;1.00;;
6163;SDS011;3114;48.362;10.994;2023-05-10T00:33:27;1.08;;;0.98;;
6163;SDS011;3114;48.362;10.994;2023-05-10T00:35:54;3.05;;;0.90;;
6163;SDS011;3114;48.362;10.994;2023-05-10T00:38:22;1.63;;;1.15;;
6163;SDS011;3114;48.362;10.994;2023-05-10T00:40:49;1.00;;;1.00;;
6163;SDS011;3114;48.362;10.994;2023-05-10T00:43:16;1.23;;;1.10;;
6163;SDS011;3114;48.362;10.994;2023-05-10T00:45:42;3.72;;;1.05;;
6163;SDS011;3114;48.362;10.994;2023-05-10T00:48:10;4.07;;;0.90;;
6163;SDS011;3114;48.362;10.994;2023-05-10T00:50:37;1.10;;;1.00;;
6163;SDS011;3114;48.362;10.994;2023-05-10T00:53:05;1.15;;;1.00;;
6163;SDS011;3114;48.362;10.994;2023-05-10T00:55:33;3.15;;;0.90;;
6163;SDS011;3114;48.362;10.994;2023-05-10T00:58:00;1.75;;;0.90;;
6163;SDS011;3114;48.362;10.994;2023-05-10T01:00:27;1.13;;;1.00;;
6163;SDS011;3114;48.362;10.994;2023-05-10T01:02:54;1.10;;;1.00;;
6163;SDS011;3114;48.362;10.994;2023-05-10T01:05:21;0.90;;;0.90;;
6163;SDS011;3114;48.362;10.994;2023-05-10T01:07:48;0.93;;;0.93;;
6163;SDS011;3114;48.362;10.994;2023-05-10T01:10:15;1.00;;;1.00;;
6163;SDS011;3114;48.362;10.994;2023-05-10T01:12:44;0.77;;;0.77;;
6163;SDS011;3114;48.362;10.994;2023-05-10T01:15:12;1.33;;;0.82;;
6163;SDS011;3114;48.362;10.994;2023-05-10T01:17:42;0.75;;;0.73;;
6163;SDS011;3114;48.362;10.994;2023-05-10T01:20:10;1.17;;;0.63;;
6163;SDS011;3114;48.362;10.994;2023-05-10T01:22:58;0.77;;;0.77;;
6163;SDS011;3114;48.362;10.994;2023-05-10T01:25:56;0.60;;;0.60;;
6163;SDS011;3114;48.362;10.994;2023-05-10T01:28:56;1.25;;;0.70;;
6163;SDS011;3114;48.362;10.994;2023-05-10T01:31:49;0.93;;;0.80;;
6163;SDS011;3114;48.362;10.994;2023-05-10T01:34:35;0.70;;;0.70;;
6163;SDS011;3114;48.362;10.994;2023-05-10T01:37:10;0.70;;;0.70;;
6163;SDS011;3114;48.362;10.994;2023-05-10T01:39:45;0.70;;;0.70;;
6163;SDS011;3114;48.362;10.994;2023-05-10T01:42:16;0.95;;;0.80;;
6163;SDS011;3114;48.362;10.994;2023-05-10T01:44:49;1.20;;;0.70;;
6163;SDS011;3114;48.362;10.994;2023-05-10T01:47:26;1.15;;;0.80;;
6163;SDS011;3114;48.362;10.994;2023-05-10T01:50:01;0.70;;;0.70;;
6163;SDS011;3114;48.362;10.994;2023-05-10T01:52:32;0.68;;;0.60;;
6163;SDS011;3114;48.362;10.994;2023-05-10T01:55:03;0.57;;;0.57;;
6163;SDS011;3114;48.362;10.994;2023-05-10T01:57:32;1.45;;;0.70;;
6163;SDS011;3114;48.362;10.994;2023-05-10T02:00:01;1.85;;;0.60;;
6163;SDS011;3114;48.362;10.994;2023-05-10T02:02:30;1.17;;;0.60;;
6163;SDS011;3114;48.362;10.994;2023-05-10T02:05:02;0.45;;;0.43;;
6163;SDS011;3114;48.362;10.994;2023-05-10T02:07:31;1.27;;;0.47;;
6163;SDS011;3114;48.362;10.994;2023-05-10T02:10:00;0.57;;;0.57;;
6163;SDS011;3114;48.362;10.994;2023-05-10T02:12:28;0.40;;;0.40;;
6163;SDS011;3114;48.362;10.994;2023-05-10T02:14:58;0.50;;;0.50;;
6163;SDS011;3114;48.362;10.994;2023-05-10T02:17:27;0.40;;;0.35;;
6163;SDS011;3114;48.362;10.994;2023-05-10T02:19:57;0.52;;;0.52;;
6163;SDS011;3114;48.362;10.994;2023-05-10T02:22:25;0.38;;;0.38;;
6163;SDS011;3114;48.362;10.994;2023-05-10T02:24:53;0.50;;;0.50;;
6163;SDS011;3114;48.362;10.994;2023-05-10T02:27:22;1.75;;;0.40;;
6163;SDS011;3114;48.362;10.994;2023-05-10T02:29:50;0.55;;;0.55;;
6163;SDS011;3114;48.362;10.994;2023-05-10T02:32:18;2.42;;;0.30;;
6163;SDS011;3114;48.362;10.994;2023-05-10T02:34:47;0.43;;;0.38;;
6163;SDS011;3114;48.362;10.994;2023-05-10T02:37:18;0.30;;;0.30;;
6163;SDS011;3114;48.362;10.994;2023-05-10T02:39:46;0.45;;;0.45;;
6163;SDS011;3114;48.362;10.994;2023-05-10T02:42:14;0.30;;;0.30;;
6163;SDS011;3114;48.362;10.994;2023-05-10T02:44:45;1.30;;;0.47;;
6163;SDS011;3114;48.362;10.994;2023-05-10T02:47:14;0.60;;;0.40;;
6163;SDS011;3114;48.362;10.994;2023-05-10T02:49:41;0.43;;;0.43;;
6163;SDS011;3114;48.362;10.994;2023-05-10T02:52:08;0.20;;;0.20;;
6163;SDS011;3114;48.362;10.994;2023-05-10T02:54:39;11.63;;;0.68;;
6163;SDS011;3114;48.362;10.994;2023-05-10T02:57:10;0.55;;;0.40;;
6163;SDS011;3114;48.362;10.994;2023-05-10T02:59:43;0.40;;;0.40;;
6163;SDS011;3114;48.362;10.994;2023-05-10T03:02:10;0.30;;;0.30;;
6163;SDS011;3114;48.362;10.994;2023-05-10T03:04:38;0.30;;;0.30;;
6163;SDS011;3114;48.362;10.994;2023-05-10T03:07:05;0.20;;;0.20;;
6163;SDS011;3114;48.362;10.994;2023-05-10T03:09:33;0.43;;;0.40;;
6163;SDS011;3114;48.362;10.994;2023-05-10T03:12:03;0.32;;;0.32;;
6163;SDS011;3114;48.362;10.994;2023-05-10T03:14:43;1.73;;;0.40;;
6163;SDS011;3114;48.362;10.994;2023-05-10T03:17:18;0.32;;;0.32;;
6163;SDS011;3114;48.362;10.994;2023-05-10T03:19:53;0.30;;;0.30;;
6163;SDS011;3114;48.362;10.994;2023-05-10T03:22:22;0.30;;;0.30;;
6163;SDS011;3114;48.362;10.994;2023-05-10T03:24:53;0.22;;;0.22;;
6163;SDS011;3114;48.362;10.994;2023-05-10T03:27:23;0.40;;;0.40;;
6163;SDS011;3114;48.362;10.994;2023-05-10T03:29:53;0.15;;;0.15;;
6163;SDS011;3114;48.362;10.994;2023-05-10T03:32:21;0.20;;;0.20;;
6163;SDS011;3114;48.362;10.994;2023-05-10T03:34:48;0.32;;;0.20;;
6163;SDS011;3114;48.362;10.994;2023-05-10T03:37:15;0.20;;;0.20;;
6163;SDS011;3114;48.362;10.994;2023-05-10T03:39:42;0.68;;;0.20;;
6163;SDS011;3114;48.362;10.994;2023-05-10T03:42:09;0.20;;;0.20;;
6163;SDS011;3114;48.362;10.994;2023-05-10T03:44:38;0.10;;;0.10;;
6163;SDS011;3114;48.362;10.994;2023-05-10T03:47:05;2.30;;;0.35;;
6163;SDS011;3114;48.362;10.994;2023-05-10T03:49:32;0.45;;;0.45;;
6163;SDS011;3114;48.362;10.994;2023-05-10T03:51:59;0.30;;;0.30;;
6163;SDS011;3114;48.362;10.994;2023-05-10T03:54:26;0.10;;;0.10;;
6163;SDS011;3114;48.362;10.994;2023-05-10T03:56:52;0.43;;;0.30;;
6163;SDS011;3114;48.362;10.994;2023-05-10T03:59:19;0.25;;;0.10;;
6163;SDS011;3114;48.362;10.994;2023-05-10T04:01:47;0.20;;;0.20;;
6163;SDS011;3114;48.362;10.994;2023-05-10T04:04:14;0.10;;;0.10;;
6163;SDS011;3114;48.362;10.994;2023-05-10T04:06:43;0.20;;;0.20;;
6163;SDS011;3114;48.362;10.994;2023-05-10T04:09:10;0.10;;;0.10;;
6163;SDS011;3114;48.362;10.994;2023-05-10T04:11:37;0.30;;;0.30;;
6163;SDS011;3114;48.362;10.994;2023-05-10T04:14:04;0.68;;;0.40;;
6163;SDS011;3114;48.362;10.994;2023-05-10T04:16:30;1.00;;;0.50;;
6163;SDS011;3114;48.362;10.994;2023-05-10T04:18:59;0.00;;;0.00;;
6163;SDS011;3114;48.362;10.994;2023-05-10T04:21:26;0.30;;;0.15;;
6163;SDS011;3114;48.362;10.994;2023-05-10T04:23:52;0.50;;;0.20;;
6163;SDS011;3114;48.362;10.994;2023-05-10T04:26:19;0.43;;;0.20;;
6163;SDS011;3114;48.362;10.994;2023-05-10T04:28:47;0.25;;;0.20;;
6163;SDS011;3114;48.362;10.994;2023-05-10T04:31:13;0.30;;;0.30;;
6163;SDS011;3114;48.362;10.994;2023-05-10T04:33:40;0.15;;;0.15;;
6163;SDS011;3114;48.362;10.994;2023-05-10T04:36:09;0.40;;;0.40;;
6163;SDS011;3114;48.362;10.994;2023-05-10T04:38:35;0.30;;;0.30;;
6163;SDS011;3114;48.362;10.994;2023-05-10T04:41:05;0.38;;;0.30;;
6163;SDS011;3114;48.362;10.994;2023-05-10T04:43:33;0.52;;;0.20;;
6163;SDS011;3114;48.362;10.994;2023-05-10T04:46:01;0.35;;;0.22;;
6163;SDS011;3114;48.362;10.994;2023-05-10T04:48:28;0.28;;;0.28;;
6163;SDS011;3114;48.362;10.994;2023-05-10T04:50:55;0.30;;;0.30;;
6163;SDS011;3114;48.362;10.994;2023-05-10T04:53:23;0.63;;;0.30;;
6163;SDS011;3114;48.362;10.994;2023-05-10T04:55:50;0.47;;;0.30;;
6163;SDS011;3114;48.362;10.994;2023-05-10T04:58:17;0.22;;;0.22;;
6163;SDS011;3114;48.362;10.994;2023-05-10T05:00:44;0.45;;;0.20;;
6163;SDS011;3114;48.362;10.994;2023-05-10T05:03:10;1.58;;;0.35;;
6163;SDS011;3114;48.362;10.994;2023-05-10T05:05:37;0.50;;;0.30;;
6163;SDS011;3114;48.362;10.994;2023-05-10T05:08:04;0.82;;;0.57;;
6163;SDS011;3114;48.362;10.994;2023-05-10T05:10:32;0.30;;;0.28;;
6163;SDS011;3114;48.362;10.994;2023-05-10T05:12:59;1.73;;;0.30;;
6163;SDS011;3114;48.362;10.994;2023-05-10T05:15:26;0.17;;;0.17;;
6163;SDS011;3114;48.362;10.994;2023-05-10T05:17:54;3.08;;;0.25;;
6163;SDS011;3114;48.362;10.994;2023-05-10T05:20:21;1.55;;;0.38;;
6163;SDS011;3114;48.362;10.994;2023-05-10T05:22:48;0.68;;;0.40;;
6163;SDS011;3114;48.362;10.994;2023-05-10T05:25:15;0.60;;;0.40;;
6163;SDS011;3114;48.362;10.994;2023-05-10T05:27:43;2.38;;;0.30;;
6163;SDS011;3114;48.362;10.994;2023-05-10T05:30:10;0.40;;;0.40;;
6163;SDS011;3114;48.362;10.994;2023-05-10T05:32:37;0.40;;;0.40;;
6163;SDS011;3114;48.362;10.994;2023-05-10T05:35:04;0.30;;;0.30;;
6163;SDS011;3114;48.362;10.994;2023-05-10T05:37:32;1.33;;;0.43;;
6163;SDS011;3114;48.362;10.994;2023-05-10T05:39:58;0.38;;;0.32;;
6163;SDS011;3114;48.362;10.994;2023-05-10T05:42:26;0.30;;;0.30;;
6163;SDS011;3114;48.362;10.994;2023-05-10T05:44:55;0.57;;;0.40;;
6163;SDS011;3114;48.362;10.994;2023-05-10T05:47:21;0.88;;;0.25;;
6163;SDS011;3114;48.362;10.994;2023-05-10T05:49:48;0.73;;;0.30;;
6163;SDS011;3114;48.362;10.994;2023-05-10T05:52:15;0.60;;;0.50;;
6163;SDS011;3114;48.362;10.994;2023-05-10T05:54:42;1.23;;;0.50;;
6163;SDS011;3114;48.362;10.994;2023-05-10T05:57:09;0.80;;;0.32;;
6163;SDS011;3114;48.362;10.994;2023-05-10T05:59:36;0.68;;;0.55;;
6163;SDS011;3114;48.362;10.994;2023-05-10T06:02:08;0.38;;;0.38;;
6163;SDS011;3114;48.362;10.994;2023-05-10T06:04:35;0.55;;;0.30;;
6163;SDS011;3114;48.362;10.994;2023-05-10T06:07:01;1.17;;;0.30;;
6163;SDS011;3114;48.362;10.994;2023-05-10T06:09:28;0.32;;;0.30;;
6163;SDS011;3114;48.362;10.994;2023-05-10T06:11:55;0.50;;;0.50;;
6163;SDS011;3114;48.362;10.994;2023-05-10T06:14:22;0.35;;;0.30;;
6163;SDS011;3114;48.362;10.994;2023-05-10T06:16:49;0.40;;;0.40;;
6163;SDS011;3114;48.362;10.994;2023-05-10T06:19:17;0.82;;;0.40;;
6163;SDS011;3114;48.362;10.994;2023-05-10T06:21:44;1.70;;;0.60;;
6163;SDS011;3114;48.362;10.994;2023-05-10T06:24:11;0.40;;;0.40;;
6163;SDS011;3114;48.362;10.994;2023-05-10T06:26:38;0.50;;;0.50;;
6163;SDS011;3114;48.362;10.994;2023-05-10T06:29:05;1.83;;;0.82;;
6163;SDS011;3114;48.362;10.994;2023-05-10T06:31:32;2.47;;;0.80;;
6163;SDS011;3114;48.362;10.994;2023-05-10T06:33:58;0.50;;;0.50;;
6163;SDS011;3114;48.362;10.994;2023-05-10T06:36:27;0.50;;;0.50;;
6163;SDS011;3114;48.362;10.994;2023-05-10T06:38:54;2.22;;;0.70;;
6163;SDS011;3114;48.362;10.994;2023-05-10T06:41:20;1.17;;;0.60;;
6163;SDS011;3114;48.362;10.994;2023-05-10T06:43:47;0.77;;;0.52;;
6163;SDS011;3114;48.362;10.994;2023-05-10T06:46:14;0.85;;;0.65;;
6163;SDS011;3114;48.362;10.994;2023-05-10T06:48:41;1.05;;;0.63;;
6163;SDS011;3114;48.362;10.994;2023-05-10T06:51:08;0.70;;;0.60;;
6163;SDS011;3114;48.362;10.994;2023-05-10T06:53:36;1.05;;;0.70;;
6163;SDS011;3114;48.362;10.994;2023-05-10T06:56:03;1.52;;;0.80;;
6163;SDS011;3114;48.362;10.994;2023-05-10T06:58:30;2.72;;;0.98;;
6163;SDS011;3114;48.362;10.994;2023-05-10T07:01:01;1.60;;;0.80;;
6163;SDS011;3114;48.362;10.994;2023-05-10T07:03:28;2.53;;;0.70;;
6163;SDS011;3114;48.362;10.994;2023-05-10T07:05:59;0.75;;;0.55;;
6163;SDS011;3114;48.362;10.994;2023-05-10T07:08:28;1.58;;;0.65;;
6163;SDS011;3114;48.362;10.994;2023-05-10T07:11:00;1.88;;;1.23;;
6163;SDS011;3114;48.362;10.994;2023-05-10T07:13:28;0.50;;;0.50;;
6163;SDS011;3114;48.362;10.994;2023-05-10T07:15:55;1.27;;;0.73;;
6163;SDS011;3114;48.362;10.994;2023-05-10T07:18:22;0.60;;;0.60;;
6163;SDS011;3114;48.362;10.994;2023-05-10T07:20:49;0.90;;;0.57;;
6163;SDS011;3114;48.362;10.994;2023-05-10T07:23:16;4.35;;;0.60;;
6163;SDS011;3114;48.362;10.994;2023-05-10T07:25:44;0.57;;;0.50;;
6163;SDS011;3114;48.362;10.994;2023-05-10T07:28:13;0.47;;;0.47;;
6163;SDS011;3114;48.362;10.994;2023-05-10T07:30:40;0.50;;;0.50;;
6163;SDS011;3114;48.362;10.994;2023-05-10T07:33:07;1.55;;;0.68;;
6163;SDS011;3114;48.362;10.994;2023-05-10T07:35:34;0.50;;;0.50;;
6163;SDS011;3114;48.362;10.994;2023-05-10T07:38:02;0.43;;;0.43;;
6163;SDS011;3114;48.362;10.994;2023-05-10T07:40:29;0.57;;;0.38;;
6163;SDS011;3114;48.362;10.994;2023-05-10T07:42:56;0.40;;;0.40;;
6163;SDS011;3114;48.362;10.994;2023-05-10T07:45:24;0.40;;;0.40;;
6163;SDS011;3114;48.362;10.994;2023-05-10T07:47:51;0.43;;;0.43;;
6163;SDS011;3114;48.362;10.994;2023-05-10T07:50:18;0.65;;;0.38;;
6163;SDS011;3114;48.362;10.994;2023-05-10T07:52:46;0.50;;;0.47;;
6163;SDS011;3114;48.362;10.994;2023-05-10T07:55:13;1.65;;;0.50;;
6163;SDS011;3114;48.362;10.994;2023-05-10T07:57:39;1.00;;;0.40;;
6163;SDS011;3114;48.362;10.994;2023-05-10T08:00:08;1.17;;;0.60;;
6163;SDS011;3114;48.362;10.994;2023-05-10T08:02:39;1.08;;;0.40;;
6163;SDS011;3114;48.362;10.994;2023-05-10T08:05:07;0.30;;;0.30;;
6163;SDS011;3114;48.362;10.994;2023-05-10T08:07:34;1.15;;;0.57;;
6163;SDS011;3114;48.362;10.994;2023-05-10T08:10:01;1.35;;;0.55;;
6163;SDS011;3114;48.362;10.994;2023-05-10T08:12:28;1.52;;;0.40;;
6163;SDS011;3114;48.362;10.994;2023-05-10T08:14:55;0.50;;;0.50;;
6163;SDS011;3114;48.362;10.994;2023-05-10T08:17:22;0.38;;;0.38;;
6163;SDS011;3114;48.362;10.994;2023-05-10T08:19:50;1.70;;;1.20;;
6163;SDS011;3114;48.362;10.994;2023-05-10T08:22:17;0.60;;;0.60;;
6163;SDS011;3114;48.362;10.994;2023-05-10T08:24:44;2.28;;;0.60;;
6163;SDS011;3114;48.362;10.994;2023-05-10T08:27:11;0.70;;;0.50;;
6163;SDS011;3114;48.362;10.994;2023-05-10T08:29:37;3.35;;;0.70;;
6163;SDS011;3114;48.362;10.994;2023-05-10T08:32:04;1.35;;;0.60;;
6163;SDS011;3114;48.362;10.994;2023-05-10T08:34:31;0.73;;;0.50;;
6163;SDS011;3114;48.362;10.994;2023-05-10T08:36:59;4.40;;;0.88;;
6163;SDS011;3114;48.362;10.994;2023-05-10T08:39:26;1.35;;;0.70;;
6163;SDS011;3114;48.362;10.994;2023-05-10T08:41:53;1.58;;;0.40;;
6163;SDS011;3114;48.362;10.994;2023-05-10T08:44:24;1.90;;;0.30;;
6163;SDS011;3114;48.362;10.994;2023-05-10T08:46:51;3.78;;;1.13;;
6163;SDS011;3114;48.362;10.994;2023-05-10T08:49:20;3.60;;;0.82;;
6163;SDS011;3114;48.362;10.994;2023-05-10T08:51:49;3.65;;;0.85;;
6163;SDS011;3114;48.362;10.994;2023-05-10T08:54:19;6.68;;;1.05;;
6163;SDS011;3114;48.362;10.994;2023-05-10T08:56:47;0.90;;;0.35;;
6163;SDS011;3114;48.362;10.994;2023-05-10T08:59:14;1.48;;;0.50;;
6163;SDS011;3114;48.362;10.994;2023-05-10T09:01:42;1.67;;;0.50;;
6163;SDS011;3114;48.362;10.994;2023-05-10T09:04:09;1.98;;;0.50;;
6163;SDS011;3114;48.362;10.994;2023-05-10T09:06:37;0.60;;;0.60;;
6163;SDS011;3114;48.362;10.994;2023-05-10T09:09:04;0.28;;;0.28;;
6163;SDS011;3114;48.362;10.994;2023-05-10T09:11:33;0.93;;;0.63;;
6163;SDS011;3114;48.362;10.994;2023-05-10T09:14:00;0.57;;;0.50;;
6163;SDS011;3114;48.362;10.994;2023-05-10T09:16:27;5.43;;;1.02;;
6163;SDS011;3114;48.362;10.994;2023-05-10T09:18:54;11.70;;;1.30;;
6163;SDS011;3114;48.362;10.994;2023-05-10T09:21:22;2.03;;;0.88;;
6163;SDS011;3114;48.362;10.994;2023-05-10T09:23:48;6.40;;;1.38;;
6163;SDS011;3114;48.362;10.994;2023-05-10T09:26:21;2.03;;;0.65;;
6163;SDS011;3114;48.362;10.994;2023-05-10T09:28:54;4.72;;;1.20;;
6163;SDS011;3114;48.362;10.994;2023-05-10T09:31:22;0.82;;;0.50;;
6163;SDS011;3114;48.362;10.994;2023-05-10T09:33:49;1.58;;;0.73;;
6163;SDS011;3114;48.362;10.994;2023-05-10T09:36:17;0.70;;;0.70;;
6163;SDS011;3114;48.362;10.994;2023-05-10T09:38:44;8.82;;;1.67;;
6163;SDS011;3114;48.362;10.994;2023-05-10T09:41:16;2.13;;;0.70;;
6163;SDS011;3114;48.362;10.994;2023-05-10T09:43:43;1.20;;;0.77;;
6163;SDS011;3114;48.362;10.994;2023-05-10T09:46:12;1.75;;;0.70;;
6163;SDS011;3114;48.362;10.994;2023-05-10T09:48:40;1.05;;;0.60;;
6163;SDS011;3114;48.362;10.994;2023-05-10T09:51:08;4.43;;;0.70;;
6163;SDS011;3114;48.362;10.994;2023-05-10T09:53:35;1.10;;;0.70;;
6163;SDS011;3114;48.362;10.994;2023-05-10T09:56:02;2.17;;;0.85;;
6163;SDS011;3114;48.362;10.994;2023-05-10T09:58:29;2.33;;;1.30;;
6163;SDS011;3114;48.362;10.994;2023-05-10T10:00:56;2.75;;;1.20;;
6163;SDS011;3114;48.362;10.994;2023-05-10T10:03:25;1.48;;;0.90;;
6163;SDS011;3114;48.362;10.994;2023-05-10T10:05:51;1.15;;;1.00;;
6163;SDS011;3114;48.362;10.994;2023-05-10T10:08:21;0.80;;;0.80;;
6163;SDS011;3114;48.362;10.994;2023-05-10T10:10:48;1.25;;;0.90;;
6163;SDS011;3114;48.362;10.994;2023-05-10T10:13:15;1.08;;;0.80;;
6163;SDS011;3114;48.362;10.994;2023-05-10T10:15:42;24.42;;;12.45;;
6163;SDS011;3114;48.362;10.994;2023-05-10T10:18:12;16.30;;;7.20;;
6163;SDS011;3114;48.362;10.994;2023-05-10T10:20:41;18.40;;;7.80;;
6163;SDS011;3114;48.362;10.994;2023-05-10T10:23:08;3.53;;;2.10;;
6163;SDS011;3114;48.362;10.994;2023-05-10T10:25:35;2.15;;;1.00;;
6163;SDS011;3114;48.362;10.994;2023-05-10T10:28:06;1.65;;;1.10;;
6163;SDS011;3114;48.362;10.994;2023-05-10T10:30:42;1.15;;;0.88;;
6163;SDS011;3114;48.362;10.994;2023-05-10T10:33:27;1.25;;;0.70;;
6163;SDS011;3114;48.362;10.994;2023-05-10T10:36:07;2.10;;;0.80;;
6163;SDS011;3114;48.362;10.994;2023-05-10T10:38:41;1.10;;;0.75;;
6163;SDS011;3114;48.362;10.994;2023-05-10T10:41:28;1.08;;;0.73;;
6163;SDS011;3114;48.362;10.994;2023-05-10T10:47:00;3.33;;;0.70;;
6163;SDS011;3114;48.362;10.994;2023-05-10T10:49:30;0.90;;;0.80;;
6163;SDS011;3114;48.362;10.994;2023-05-10T10:52:18;1.00;;;0.77;;
6163;SDS011;3114;48.362;10.994;2023-05-10T10:54:51;0.95;;;0.82;;
6163;SDS011;3114;48.362;10.994;2023-05-10T10:57:19;1.23;;;0.90;;
6163;SDS011;3114;48.362;10.994;2023-05-10T10:59:47;0.90;;;0.90;;
6163;SDS011;3114;48.362;10.994;2023-05-10T11:02:32;2.28;;;1.20;;
6163;SDS011;3114;48.362;10.994;2023-05-10T11:05:00;1.13;;;1.00;;
6163;SDS011;3114;48.362;10.994;2023-05-10T11:07:53;1.65;;;1.17;;
6163;SDS011;3114;48.362;10.994;2023-05-10T11:10:21;0.80;;;0.80;;
6163;SDS011;3114;48.362;10.994;2023-05-10T11:12:52;1.75;;;1.10;;
6163;SDS011;3114;48.362;10.994;2023-05-10T11:15:21;2.13;;;0.52;;
6163;SDS011;3114;48.362;10.994;2023-05-10T11:17:55;1.00;;;0.77;;
6163;SDS011;3114;48.362;10.994;2023-05-10T11:20:22;1.58;;;0.63;;
6163;SDS011;3114;48.362;10.994;2023-05-10T11:22:55;0.60;;;0.60;;
6163;SDS011;3114;48.362;10.994;2023-05-10T11:25:26;0.88;;;0.50;;
6163;SDS011;3114;48.362;10.994;2023-05-10T11:27:53;0.43;;;0.43;;
6163;SDS011;3114;48.362;10.994;2023-05-10T11:30:20;1.05;;;0.50;;
6163;SDS011;3114;48.362;10.994;2023-05-10T11:32:47;1.20;;;0.57;;
6163;SDS011;3114;48.362;10.994;2023-05-10T11:35:15;0.75;;;0.70;;
6163;SDS011;3114;48.362;10.994;2023-05-10T11:37:42;1.00;;;0.73;;
6163;SDS011;3114;48.362;10.994;2023-05-10T11:40:12;1.08;;;0.70;;
6163;SDS011;3114;48.362;10.994;2023-05-10T11:42:39;0.63;;;0.63;;
6163;SDS011;3114;48.362;10.994;2023-05-10T11:45:07;0.80;;;0.73;;
6163;SDS011;3114;48.362;10.994;2023-05-10T11:47:34;3.65;;;1.30;;
6163;SDS011;3114;48.362;10.994;2023-05-10T11:50:02;1.98;;;1.40;;
6163;SDS011;3114;48.362;10.994;2023-05-10T11:52:29;1.70;;;1.20;;
6163;SDS011;3114;48.362;10.994;2023-05-10T11:55:02;2.38;;;1.50;;
6163;SDS011;3114;48.362;10.994;2023-05-10T11:57:31;2.25;;;1.50;;
6163;SDS011;3114;48.362;10.994;2023-05-10T11:59:57;2.20;;;1.33;;
6163;SDS011;3114;48.362;10.994;2023-05-10T12:02:25;2.88;;;1.88;;
6163;SDS011;3114;48.362;10.994;2023-05-10T12:04:51;2.65;;;1.50;;
6163;SDS011;3114;48.362;10.994;2023-05-10T12:07:18;1.88;;;1.30;;
6163;SDS011;3114;48.362;10.994;2023-05-10T12:12:38;1.50;;;0.90;;
6163;SDS011;3114;48.362;10.994;2023-05-10T12:15:10;1.83;;;0.80;;
6163;SDS011;3114;48.362;10.994;2023-05-10T12:17:38;4.25;;;1.60;;
6163;SDS011;3114;48.362;10.994;2023-05-10T12:20:12;4.28;;;0.65;;
6163;SDS011;3114;48.362;10.994;2023-05-10T12:22:40;2.28;;;0.85;;
6163;SDS011;3114;48.362;10.994;2023-05-10T12:25:08;3.97;;;0.77;;
6163;SDS011;3114;48.362;10.994;2023-05-10T12:27:37;2.25;;;0.68;;
6163;SDS011;3114;48.362;10.994;2023-05-10T12:30:06;1.08;;;0.63;;
6163;SDS011;3114;48.362;10.994;2023-05-10T12:32:40;0.85;;;0.55;;
6163;SDS011;3114;48.362;10.994;2023-05-10T12:35:07;0.40;;;0.40;;
6163;SDS011;3114;48.362;10.994;2023-05-10T12:37:34;0.80;;;0.50;;
6163;SDS011;3114;48.362;10.994;2023-05-10T12:40:05;1.88;;;0.30;;
6163;SDS011;3114;48.362;10.994;2023-05-10T12:42:34;4.57;;;0.40;;
6163;SDS011;3114;48.362;10.994;2023-05-10T12:45:03;1.80;;;0.20;;
6163;SDS011;3114;48.362;10.994;2023-05-10T12:47:31;0.40;;;0.40;;
6163;SDS011;3114;48.362;10.994;2023-05-10T12:49:59;0.70;;;0.70;;
6163;SDS011;3114;48.362;10.994;2023-05-10T12:52:26;0.88;;;0.68;;
6163;SDS011;3114;48.362;10.994;2023-05-10T12:54:53;2.03;;;0.60;;
6163;SDS011;3114;48.362;10.994;2023-05-10T12:57:20;2.33;;;0.85;;
6163;SDS011;3114;48.362;10.994;2023-05-10T12:59:47;0.88;;;0.88;;
6163;SDS011;3114;48.362;10.994;2023-05-10T13:02:15;1.25;;;1.00;;
6163;SDS011;3114;48.362;10.994;2023-05-10T13:04:44;2.53;;;1.30;;
6163;SDS011;3114;48.362;10.994;2023-05-10T13:07:11;6.00;;;1.70;;
6163;SDS011;3114;48.362;10.994;2023-05-10T13:09:39;1.92;;;1.30;;
6163;SDS011;3114;48.362;10.994;2023-05-10T13:12:06;0.80;;;0.80;;
6163;SDS011;3114;48.362;10.994;2023-05-10T13:14:33;3.08;;;0.70;;
6163;SDS011;3114;48.362;10.994;2023-05-10T13:17:00;1.17;;;0.80;;
6163;SDS011;3114;48.362;10.994;2023-05-10T13:19:28;1.23;;;0.73;;
6163;SDS011;3114;48.362;10.994;2023-05-10T13:21:55;1.00;;;0.90;;
6163;SDS011;3114;48.362;10.994;2023-05-10T13:24:21;3.65;;;1.00;;
6163;SDS011;3114;48.362;10.994;2023-05-10T13:26:48;1.67;;;1.00;;
6163;SDS011;3114;48.362;10.994;2023-05-10T13:29:15;2.20;;;1.05;;
6163;SDS011;3114;48.362;10.994;2023-05-10T13:31:43;1.08;;;0.98;;
6163;SDS011;3114;48.362;10.994;2023-05-10T13:34:10;2.22;;;1.00;;
6163;SDS011;3114;48.362;10.994;2023-05-10T13:36:38;1.10;;;1.00;;
6163;SDS011;3114;48.362;10.994;2023-05-10T13:39:05;1.50;;;1.00;;
6163;SDS011;3114;48.362;10.994;2023-05-10T13:41:32;1.42;;;1.17;;
6163;SDS011;3114;48.362;10.994;2023-05-10T13:43:59;4.85;;;1.10;;
6163;SDS011;3114;48.362;10.994;2023-05-10T13:46:26;1.55;;;1.05;;
6163;SDS011;3114;48.362;10.994;2023-05-10T13:48:52;2.60;;;0.98;;
6163;SDS011;3114;48.362;10.994;2023-05-10T13:51:19;2.55;;;1.20;;
6163;SDS011;3114;48.362;10.994;2023-05-10T13:53:47;1.15;;;1.05;;
6163;SDS011;3114;48.362;10.994;2023-05-10T13:56:14;3.33;;;1.40;;
6163;SDS011;3114;48.362;10.994;2023-05-10T13:58:41;1.65;;;1.20;;
6163;SDS011;3114;48.362;10.994;2023-05-10T14:01:08;1.15;;;1.15;;
6163;SDS011;3114;48.362;10.994;2023-05-10T14:03:35;5.00;;;1.45;;
6163;SDS011;3114;48.362;10.994;2023-05-10T14:06:02;1.45;;;1.23;;
6163;SDS011;3114;48.362;10.994;2023-05-10T14:08:29;1.58;;;1.20;;
6163;SDS011;3114;48.362;10.994;2023-05-10T14:10:57;1.80;;;1.20;;
6163;SDS011;3114;48.362;10.994;2023-05-10T14:13:23;0.77;;;0.77;;
6163;SDS011;3114;48.362;10.994;2023-05-10T14:15:52;2.10;;;1.20;;
6163;SDS011;3114;48.362;10.994;2023-05-10T14:18:19;1.17;;;1.05;;
6163;SDS011;3114;48.362;10.994;2023-05-10T14:20:46;1.25;;;1.15;;
6163;SDS011;3114;48.362;10.994;2023-05-10T14:23:13;2.75;;;1.10;;
6163;SDS011;3114;48.362;10.994;2023-05-10T14:25:40;0.60;;;0.60;;
6163;SDS011;3114;48.362;10.994;2023-05-10T14:28:08;0.93;;;0.40;;
6163;SDS011;3114;48.362;10.994;2023-05-10T14:30:35;1.75;;;0.57;;
6163;SDS011;3114;48.362;10.994;2023-05-10T14:33:02;0.43;;;0.40;;
6163;SDS011;3114;48.362;10.994;2023-05-10T14:35:29;1.85;;;0.40;;
6163;SDS011;3114;48.362;10.994;2023-05-10T14:37:57;0.50;;;0.50;;
6163;SDS011;3114;48.362;10.994;2023-05-10T14:40:23;0.30;;;0.30;;
6163;SDS011;3114;48.362;10.994;2023-05-10T14:42:51;1.35;;;0.60;;
6163;SDS011;3114;48.362;10.994;2023-05-10T14:45:20;1.00;;;0.50;;
6163;SDS011;3114;48.362;10.994;2023-05-10T14:47:47;1.33;;;0.68;;
6163;SDS011;3114;48.362;10.994;2023-05-10T14:50:14;2.33;;;0.70;;
6163;SDS011;3114;48.362;10.994;2023-05-10T14:52:42;4.22;;;0.80;;
6163;SDS011;3114;48.362;10.994;2023-05-10T14:55:09;1.42;;;0.88;;
6163;SDS011;3114;48.362;10.994;2023-05-10T14:57:36;2.83;;;1.60;;
6163;SDS011;3114;48.362;10.994;2023-05-10T15:00:03;2.58;;;0.73;;
6163;SDS011;3114;48.362;10.994;2023-05-10T15:02:33;5.93;;;1.88;;
6163;SDS011;3114;48.362;10.994;2023-05-10T15:04:59;2.97;;;1.30;;
6163;SDS011;3114;48.362;10.994;2023-05-10T15:07:26;3.45;;;1.40;;
6163;SDS011;3114;48.362;10.994;2023-05-10T15:09:53;1.83;;;1.20;;
6163;SDS011;3114;48.362;10.994;2023-05-10T15:12:20;2.33;;;1.15;;
6163;SDS011;3114;48.362;10.994;2023-05-10T15:14:47;1.08;;;0.80;;